createdAt,value
2022-12-27T00:00:59.657Z,1.66
2022-12-27T00:01:59.689Z,1.71
2022-12-27T00:02:59.663Z,1.82
2022-12-27T00:03:59.654Z,2.00
2022-12-27T00:04:59.661Z,2.22
2022-12-27T00:05:59.623Z,2.39
2022-12-27T00:06:59.624Z,2.55
2022-12-27T00:07:59.618Z,2.64
2022-12-27T00:08:59.625Z,2.73
2022-12-27T00:09:59.670Z,2.79
2022-12-27T00:10:59.609Z,2.82
2022-12-27T00:12:00.114Z,2.82
2022-12-27T00:12:59.597Z,2.85
2022-12-27T00:13:59.650Z,2.95
2022-12-27T00:14:59.623Z,3.00
2022-12-27T00:15:59.663Z,3.05
2022-12-27T00:16:59.646Z,3.11
2022-12-27T00:17:59.617Z,3.17
2022-12-27T00:18:59.640Z,3.21
2022-12-27T00:20:01.169Z,3.26
2022-12-27T00:20:59.614Z,3.33
2022-12-27T00:21:59.621Z,3.39
2022-12-27T00:22:59.610Z,3.42
2022-12-27T00:23:59.633Z,3.42
2022-12-27T00:24:59.686Z,3.43
2022-12-27T00:25:59.636Z,3.41
2022-12-27T00:26:59.674Z,3.43
2022-12-27T00:27:59.637Z,3.39
2022-12-27T00:28:59.618Z,3.37
2022-12-27T00:29:59.632Z,3.31
2022-12-27T00:30:59.625Z,3.25
2022-12-27T00:31:59.691Z,3.19
2022-12-27T00:32:59.678Z,3.15
2022-12-27T00:33:59.661Z,3.15
2022-12-27T00:34:59.645Z,3.21
2022-12-27T00:35:59.645Z,3.29
2022-12-27T00:36:59.633Z,3.34
2022-12-27T00:37:59.650Z,3.40
2022-12-27T00:38:59.642Z,3.45
2022-12-27T00:39:59.640Z,3.49
2022-12-27T00:40:59.651Z,3.54
2022-12-27T00:41:59.712Z,3.59
2022-12-27T00:42:59.652Z,3.62
2022-12-27T00:43:59.673Z,3.64
2022-12-27T00:44:59.640Z,3.64
2022-12-27T00:45:59.740Z,3.62
2022-12-27T00:46:59.687Z,3.59
2022-12-27T00:47:59.637Z,3.56
2022-12-27T00:48:59.646Z,3.51
2022-12-27T00:49:59.677Z,3.47
2022-12-27T00:50:59.709Z,3.49
2022-12-27T00:51:59.640Z,3.53
2022-12-27T00:52:59.652Z,3.54
2022-12-27T00:53:59.709Z,3.55
2022-12-27T00:54:59.669Z,3.56
2022-12-27T00:55:59.672Z,3.56
2022-12-27T00:56:59.651Z,3.57
2022-12-27T00:57:59.652Z,3.55
2022-12-27T00:58:59.657Z,3.53
2022-12-27T01:00:03.364Z,3.54
2022-12-27T01:00:59.694Z,3.54
2022-12-27T01:01:59.768Z,3.53
2022-12-27T01:02:59.676Z,3.51
2022-12-27T01:03:59.755Z,3.50
2022-12-27T01:04:59.655Z,3.49
2022-12-27T01:05:59.677Z,3.52
2022-12-27T01:06:59.657Z,3.56
2022-12-27T01:07:59.653Z,3.60
2022-12-27T01:08:59.723Z,3.63
2022-12-27T01:09:59.673Z,3.64
2022-12-27T01:10:59.681Z,3.66
2022-12-27T01:11:59.694Z,3.66
2022-12-27T01:12:59.663Z,3.67
2022-12-27T01:13:59.685Z,3.68
2022-12-27T01:14:59.679Z,3.70
2022-12-27T01:15:59.659Z,3.73
2022-12-27T01:16:59.786Z,3.76
2022-12-27T01:17:59.696Z,3.77
2022-12-27T01:18:59.682Z,3.78
2022-12-27T01:19:59.696Z,3.79
2022-12-27T01:20:59.730Z,3.78
2022-12-27T01:21:59.731Z,3.79
2022-12-27T01:22:59.688Z,3.80
2022-12-27T01:23:59.673Z,3.83
2022-12-27T01:24:59.709Z,3.86
2022-12-27T01:25:59.669Z,3.86
2022-12-27T01:26:59.708Z,3.85
2022-12-27T01:27:59.683Z,3.81
2022-12-27T01:28:59.727Z,3.76
2022-12-27T01:29:59.684Z,3.73
2022-12-27T01:30:59.713Z,3.72
2022-12-27T01:31:59.769Z,3.74
2022-12-27T01:32:59.747Z,3.74
2022-12-27T01:33:59.733Z,3.75
2022-12-27T01:34:59.699Z,3.75
2022-12-27T01:35:59.696Z,3.74
2022-12-27T01:36:59.680Z,3.72
2022-12-27T01:37:59.725Z,3.70
2022-12-27T01:38:59.705Z,3.64
2022-12-27T01:39:59.687Z,3.60
2022-12-27T01:40:59.720Z,3.58
2022-12-27T01:41:59.692Z,3.57
2022-12-27T01:42:59.706Z,3.57
2022-12-27T01:43:59.717Z,3.58
2022-12-27T01:44:59.678Z,3.61
2022-12-27T01:45:59.814Z,3.63
2022-12-27T01:46:59.726Z,3.62
2022-12-27T01:47:59.706Z,3.62
2022-12-27T01:48:59.782Z,3.61
2022-12-27T01:49:59.709Z,3.65
2022-12-27T01:50:59.701Z,3.69
2022-12-27T01:51:59.692Z,3.72
2022-12-27T01:52:59.731Z,3.73
2022-12-27T01:53:59.749Z,3.74
2022-12-27T01:54:59.705Z,3.74
2022-12-27T01:55:59.696Z,3.72
2022-12-27T01:56:59.705Z,3.69
2022-12-27T01:57:59.750Z,3.65
2022-12-27T01:58:59.719Z,3.60
2022-12-27T01:59:59.756Z,3.59
2022-12-27T02:00:59.775Z,3.59
2022-12-27T02:01:59.832Z,3.60
2022-12-27T02:02:59.748Z,3.60
2022-12-27T02:03:59.734Z,3.60
2022-12-27T02:04:59.727Z,3.61
2022-12-27T02:05:59.761Z,3.64
2022-12-27T02:06:59.736Z,3.68
2022-12-27T02:07:59.710Z,3.71
2022-12-27T02:08:59.713Z,3.74
2022-12-27T02:09:59.810Z,3.77
2022-12-27T02:10:59.737Z,3.80
2022-12-27T02:11:59.707Z,3.81
2022-12-27T02:12:59.749Z,3.84
2022-12-27T02:13:59.690Z,3.84
2022-12-27T02:14:59.764Z,3.83
2022-12-27T02:15:59.732Z,3.81
2022-12-27T02:16:59.749Z,3.81
2022-12-27T02:17:59.724Z,3.79
2022-12-27T02:18:59.725Z,3.78
2022-12-27T02:19:59.727Z,3.77
2022-12-27T02:20:59.797Z,3.76
2022-12-27T02:21:59.747Z,3.78
2022-12-27T02:22:59.788Z,3.77
2022-12-27T02:23:59.769Z,3.75
2022-12-27T02:24:59.745Z,3.72
2022-12-27T02:25:59.787Z,3.68
2022-12-27T02:26:59.756Z,3.67
2022-12-27T02:27:59.741Z,3.63
2022-12-27T02:28:59.742Z,3.59
2022-12-27T02:29:59.742Z,3.56
2022-12-27T02:30:59.887Z,3.54
2022-12-27T02:31:59.762Z,3.51
2022-12-27T02:32:59.767Z,3.48
2022-12-27T02:33:59.760Z,3.45
2022-12-27T02:34:59.783Z,3.42
2022-12-27T02:35:59.752Z,3.40
2022-12-27T02:36:59.758Z,3.38
2022-12-27T02:37:59.753Z,3.37
2022-12-27T02:38:59.754Z,3.38
2022-12-27T02:39:59.742Z,3.43
2022-12-27T02:40:59.765Z,3.48
2022-12-27T02:41:59.758Z,3.51
2022-12-27T02:42:59.737Z,3.50
2022-12-27T02:43:59.760Z,3.50
2022-12-27T02:44:59.771Z,3.53
2022-12-27T02:45:59.812Z,3.54
2022-12-27T02:46:59.812Z,3.53
2022-12-27T02:47:59.803Z,3.53
2022-12-27T02:48:59.829Z,3.52
2022-12-27T02:49:59.808Z,3.51
2022-12-27T02:50:59.808Z,3.50
2022-12-27T02:51:59.820Z,3.47
2022-12-27T02:52:59.873Z,3.43
2022-12-27T02:53:59.870Z,3.42
2022-12-27T02:54:59.841Z,3.39
2022-12-27T02:55:59.855Z,3.37
2022-12-27T02:56:59.864Z,3.35
2022-12-27T02:57:59.895Z,3.32
2022-12-27T02:58:59.951Z,3.31
2022-12-27T02:59:59.922Z,3.30
2022-12-27T03:00:59.958Z,3.25
2022-12-27T03:02:00.030Z,3.22
2022-12-27T03:02:59.978Z,3.18
2022-12-27T03:03:59.980Z,3.17
2022-12-27T03:05:00.015Z,3.18
2022-12-27T03:05:59.966Z,3.20
2022-12-27T03:06:59.991Z,3.24
2022-12-27T03:08:00.048Z,3.28
2022-12-27T03:09:00.017Z,3.32
2022-12-27T03:10:00.058Z,3.37
2022-12-27T03:11:00.048Z,3.35
2022-12-27T03:12:00.076Z,3.35
2022-12-27T03:13:00.106Z,3.33
2022-12-27T03:14:00.097Z,3.28
2022-12-27T03:15:00.130Z,3.24
2022-12-27T03:16:00.162Z,3.20
2022-12-27T03:17:00.137Z,3.15
2022-12-27T03:18:00.122Z,3.11
2022-12-27T03:19:00.177Z,3.07
2022-12-27T03:20:00.156Z,3.04
2022-12-27T03:21:00.176Z,3.01
2022-12-27T03:22:00.188Z,2.98
2022-12-27T03:23:00.226Z,2.96
2022-12-27T03:24:00.195Z,2.95
2022-12-27T03:25:00.216Z,2.93
2022-12-27T03:26:00.268Z,2.90
2022-12-27T03:27:00.241Z,2.88
2022-12-27T03:28:00.233Z,2.85
2022-12-27T03:29:00.257Z,2.84
2022-12-27T03:30:00.254Z,2.82
2022-12-27T03:31:00.313Z,2.82
2022-12-27T03:32:00.349Z,2.81
2022-12-27T03:33:00.303Z,2.80
2022-12-27T03:34:00.329Z,2.80
2022-12-27T03:35:00.326Z,2.81
2022-12-27T03:36:00.350Z,2.83
2022-12-27T03:37:00.384Z,2.83
2022-12-27T03:38:00.354Z,2.84
2022-12-27T03:39:00.409Z,2.85
2022-12-27T03:40:00.395Z,2.83
2022-12-27T03:41:00.389Z,2.85
2022-12-27T03:42:00.441Z,2.83
2022-12-27T03:43:00.475Z,2.85
2022-12-27T03:44:00.463Z,2.86
2022-12-27T03:45:00.436Z,2.88
2022-12-27T03:46:00.549Z,2.88
2022-12-27T03:47:00.487Z,2.87
2022-12-27T03:48:00.537Z,2.89
2022-12-27T03:49:00.510Z,2.89
2022-12-27T03:50:00.560Z,2.89
2022-12-27T03:51:00.522Z,2.89
2022-12-27T03:52:00.521Z,2.90
2022-12-27T03:53:00.554Z,2.91
2022-12-27T03:54:00.554Z,2.93
2022-12-27T03:55:00.562Z,2.93
2022-12-27T03:56:00.565Z,2.94
2022-12-27T03:57:00.588Z,2.94
2022-12-27T03:58:00.621Z,2.96
2022-12-27T03:59:00.664Z,3.02
2022-12-27T04:00:00.629Z,3.08
2022-12-27T04:01:00.665Z,3.12
2022-12-27T04:02:00.771Z,3.17
2022-12-27T04:03:00.849Z,3.23
2022-12-27T04:04:00.685Z,3.28
2022-12-27T04:05:00.687Z,3.31
2022-12-27T04:06:00.709Z,3.34
2022-12-27T04:07:00.785Z,3.35
2022-12-27T04:08:00.748Z,3.37
2022-12-27T04:09:00.782Z,3.37
2022-12-27T04:10:00.830Z,3.38
2022-12-27T04:11:00.768Z,3.38
2022-12-27T04:12:00.763Z,3.37
2022-12-27T04:13:00.788Z,3.34
2022-12-27T04:14:00.826Z,3.31
2022-12-27T04:15:00.811Z,3.28
2022-12-27T04:16:00.923Z,3.25
2022-12-27T04:17:00.829Z,3.20
2022-12-27T04:18:00.818Z,3.18
2022-12-27T04:19:00.869Z,3.16
2022-12-27T04:20:00.888Z,3.13
2022-12-27T04:21:00.901Z,3.10
2022-12-27T04:22:00.893Z,3.08
2022-12-27T04:23:00.914Z,3.07
2022-12-27T04:24:00.924Z,3.06
2022-12-27T04:25:00.928Z,3.05
2022-12-27T04:26:00.949Z,3.03
2022-12-27T04:27:00.937Z,3.02
2022-12-27T04:28:00.940Z,2.99
2022-12-27T04:29:00.989Z,2.98
2022-12-27T04:30:00.978Z,3.00
2022-12-27T04:31:01.102Z,3.00
2022-12-27T04:32:00.996Z,3.00
2022-12-27T04:33:01.030Z,2.99
2022-12-27T04:34:01.049Z,3.00
2022-12-27T04:35:01.070Z,3.00
2022-12-27T04:36:06.025Z,2.99
2022-12-27T04:37:01.047Z,2.99
2022-12-27T04:38:01.046Z,2.99
2022-12-27T04:39:01.045Z,2.98
2022-12-27T04:40:01.039Z,2.98
2022-12-27T04:41:01.103Z,2.99
2022-12-27T04:42:01.065Z,3.01
2022-12-27T04:43:01.052Z,3.01
2022-12-27T04:44:01.053Z,3.01
2022-12-27T04:45:01.082Z,3.01
2022-12-27T04:46:01.128Z,3.01
2022-12-27T04:47:01.055Z,3.02
2022-12-27T04:48:01.066Z,3.04
2022-12-27T04:49:01.065Z,3.06
2022-12-27T04:50:01.110Z,3.08
2022-12-27T04:51:01.090Z,3.10
2022-12-27T04:52:01.059Z,3.11
2022-12-27T04:53:01.100Z,3.14
2022-12-27T04:54:01.062Z,3.18
2022-12-27T04:55:01.120Z,3.21
2022-12-27T04:56:01.071Z,3.24
2022-12-27T04:57:01.065Z,3.27
2022-12-27T04:58:01.069Z,3.30
2022-12-27T04:59:01.127Z,3.32
2022-12-27T05:00:01.138Z,3.34
2022-12-27T05:01:01.126Z,3.38
2022-12-27T05:02:01.154Z,3.42
2022-12-27T05:03:01.172Z,3.46
2022-12-27T05:04:01.059Z,3.52
2022-12-27T05:05:01.089Z,3.54
2022-12-27T05:06:01.095Z,3.58
2022-12-27T05:07:01.112Z,3.58
2022-12-27T05:08:01.102Z,3.56
2022-12-27T05:09:01.148Z,3.55
2022-12-27T05:10:01.111Z,3.53
2022-12-27T05:11:01.143Z,3.51
2022-12-27T05:12:01.133Z,3.49
2022-12-27T05:13:01.101Z,3.49
2022-12-27T05:14:01.170Z,3.52
2022-12-27T05:15:01.124Z,3.54
2022-12-27T05:16:01.278Z,3.57
2022-12-27T05:17:01.091Z,3.60
2022-12-27T05:18:01.128Z,3.62
2022-12-27T05:19:01.105Z,3.65
2022-12-27T05:20:01.073Z,3.69
2022-12-27T05:21:01.113Z,3.71
2022-12-27T05:22:01.128Z,3.70
2022-12-27T05:23:01.089Z,3.71
2022-12-27T05:24:05.347Z,3.73
2022-12-27T05:25:01.132Z,3.79
2022-12-27T05:26:01.145Z,3.84
2022-12-27T05:27:01.086Z,3.88
2022-12-27T05:28:01.154Z,3.89
2022-12-27T05:29:01.079Z,3.89
2022-12-27T05:30:01.123Z,3.87
2022-12-27T05:31:01.151Z,3.84
2022-12-27T05:32:01.091Z,3.81
2022-12-27T05:33:01.084Z,3.79
2022-12-27T05:34:01.124Z,3.81
2022-12-27T05:35:01.109Z,3.80
2022-12-27T05:36:01.159Z,3.77
2022-12-27T05:37:01.121Z,3.75
2022-12-27T05:38:01.101Z,3.74
2022-12-27T05:39:01.134Z,3.77
2022-12-27T05:40:01.104Z,3.80
2022-12-27T05:41:01.164Z,3.80
2022-12-27T05:42:01.116Z,3.79
2022-12-27T05:43:01.132Z,3.78
2022-12-27T05:44:06.783Z,3.77
2022-12-27T05:45:01.132Z,3.77
2022-12-27T05:46:01.173Z,3.80
2022-12-27T05:47:01.221Z,3.80
2022-12-27T05:48:01.146Z,3.80
2022-12-27T05:49:01.123Z,3.80
2022-12-27T05:50:01.194Z,3.77
2022-12-27T05:51:01.115Z,3.73
2022-12-27T05:52:01.136Z,3.69
2022-12-27T05:53:01.109Z,3.73
2022-12-27T05:54:01.130Z,3.81
2022-12-27T05:55:01.114Z,3.86
2022-12-27T05:56:01.143Z,3.87
2022-12-27T05:57:01.206Z,3.85
2022-12-27T05:58:01.129Z,3.87
2022-12-27T05:59:01.117Z,3.88
2022-12-27T06:00:01.177Z,3.90
2022-12-27T06:01:01.140Z,3.91
2022-12-27T06:02:01.343Z,3.88
2022-12-27T06:03:01.380Z,3.88
2022-12-27T06:04:01.128Z,3.89
2022-12-27T06:05:01.163Z,3.89
2022-12-27T06:06:01.142Z,3.89
2022-12-27T06:07:01.165Z,3.88
2022-12-27T06:08:01.165Z,3.89
2022-12-27T06:09:01.132Z,3.87
2022-12-27T06:10:01.161Z,3.85
2022-12-27T06:11:01.189Z,3.82
2022-12-27T06:12:01.154Z,3.78
2022-12-27T06:13:01.165Z,3.74
2022-12-27T06:14:01.152Z,3.71
2022-12-27T06:15:01.182Z,3.69
2022-12-27T06:16:01.258Z,3.72
2022-12-27T06:17:01.162Z,3.74
2022-12-27T06:18:01.158Z,3.78
2022-12-27T06:19:01.305Z,3.78
2022-12-27T06:20:01.183Z,3.80
2022-12-27T06:21:01.226Z,3.83
2022-12-27T06:22:01.163Z,3.85
2022-12-27T06:23:01.164Z,3.87
2022-12-27T06:24:01.216Z,3.88
2022-12-27T06:25:01.160Z,3.89
2022-12-27T06:26:01.174Z,3.90
2022-12-27T06:27:01.163Z,3.92
2022-12-27T06:28:01.147Z,3.91
2022-12-27T06:29:01.196Z,3.90
2022-12-27T06:30:01.207Z,3.86
2022-12-27T06:31:01.188Z,3.83
2022-12-27T06:32:01.212Z,3.80
2022-12-27T06:33:01.200Z,3.80
2022-12-27T06:34:01.172Z,3.78
2022-12-27T06:35:01.157Z,3.75
2022-12-27T06:36:01.168Z,3.71
2022-12-27T06:37:01.181Z,3.66
2022-12-27T06:38:01.182Z,3.63
2022-12-27T06:39:01.160Z,3.59
2022-12-27T06:40:01.159Z,3.54
2022-12-27T06:41:01.192Z,3.55
2022-12-27T06:42:01.208Z,3.54
2022-12-27T06:43:01.190Z,3.53
2022-12-27T06:44:01.218Z,3.55
2022-12-27T06:45:01.184Z,3.56
2022-12-27T06:46:01.245Z,3.54
2022-12-27T06:47:01.195Z,3.56
2022-12-27T06:48:01.149Z,3.55
2022-12-27T06:49:01.153Z,3.57
2022-12-27T06:50:01.191Z,3.58
2022-12-27T06:51:01.191Z,3.62
2022-12-27T06:52:01.232Z,3.63
2022-12-27T06:53:01.173Z,3.63
2022-12-27T06:54:01.179Z,3.60
2022-12-27T06:55:01.176Z,3.58
2022-12-27T06:56:01.180Z,3.54
2022-12-27T06:57:01.186Z,3.50
2022-12-27T06:58:01.226Z,3.47
2022-12-27T06:59:01.168Z,3.46
2022-12-27T07:00:02.926Z,3.42
2022-12-27T07:01:01.188Z,3.39
2022-12-27T07:02:01.367Z,3.37
2022-12-27T07:03:01.217Z,3.36
2022-12-27T07:04:01.197Z,3.34
2022-12-27T07:05:01.176Z,3.33
2022-12-27T07:06:01.175Z,3.34
2022-12-27T07:07:01.224Z,3.33
2022-12-27T07:08:01.211Z,3.34
2022-12-27T07:09:01.204Z,3.32
2022-12-27T07:10:01.191Z,3.30
2022-12-27T07:11:01.170Z,3.26
2022-12-27T07:12:01.187Z,3.23
2022-12-27T07:13:01.234Z,3.22
2022-12-27T07:14:01.228Z,3.22
2022-12-27T07:15:01.180Z,3.22
2022-12-27T07:16:01.213Z,3.19
2022-12-27T07:17:01.239Z,3.13
2022-12-27T07:18:01.237Z,3.10
2022-12-27T07:19:01.237Z,3.04
2022-12-27T07:20:01.179Z,2.95
2022-12-27T07:21:01.200Z,2.88
2022-12-27T07:22:01.238Z,2.82
2022-12-27T07:23:01.205Z,2.76
2022-12-27T07:24:01.231Z,2.70
2022-12-27T07:25:01.207Z,2.65
2022-12-27T07:26:01.262Z,2.59
2022-12-27T07:27:01.191Z,2.54
2022-12-27T07:28:01.227Z,2.48
2022-12-27T07:29:01.253Z,2.43
2022-12-27T07:30:01.210Z,2.38
2022-12-27T07:31:01.218Z,2.33
2022-12-27T07:32:01.270Z,2.30
2022-12-27T07:33:01.268Z,2.26
2022-12-27T07:34:01.293Z,2.23
2022-12-27T07:35:01.204Z,2.22
2022-12-27T07:36:01.232Z,2.21
2022-12-27T07:37:01.255Z,2.19
2022-12-27T07:38:01.208Z,2.19
2022-12-27T07:39:01.224Z,2.18
2022-12-27T07:40:01.255Z,2.18
2022-12-27T07:41:01.273Z,2.17
2022-12-27T07:42:07.775Z,2.19
2022-12-27T07:43:01.218Z,2.19
2022-12-27T07:44:01.230Z,2.21
2022-12-27T07:45:01.221Z,2.22
2022-12-27T07:46:01.249Z,2.23
2022-12-27T07:47:01.202Z,2.22
2022-12-27T07:48:01.225Z,2.20
2022-12-27T07:49:01.232Z,2.19
2022-12-27T07:50:01.213Z,2.16
2022-12-27T07:51:01.212Z,2.14
2022-12-27T07:52:01.260Z,2.11
2022-12-27T07:53:01.233Z,2.10
2022-12-27T07:54:01.253Z,2.09
2022-12-27T07:55:01.217Z,2.08
2022-12-27T07:56:01.241Z,2.07
2022-12-27T07:57:01.237Z,2.05
2022-12-27T07:58:01.234Z,2.02
2022-12-27T07:59:01.267Z,2.02
2022-12-27T08:00:01.222Z,2.00
2022-12-27T08:01:01.246Z,1.99
2022-12-27T08:02:01.354Z,1.98
2022-12-27T08:03:01.284Z,1.98
2022-12-27T08:04:01.245Z,1.97
2022-12-27T08:05:01.244Z,1.98
2022-12-27T08:06:01.243Z,2.00
2022-12-27T08:07:01.238Z,2.01
2022-12-27T08:08:01.232Z,2.01
2022-12-27T08:09:01.232Z,2.02
2022-12-27T08:10:01.298Z,2.05
2022-12-27T08:11:05.536Z,2.12
2022-12-27T08:12:01.266Z,2.25
2022-12-27T08:13:01.246Z,2.40
2022-12-27T08:14:01.243Z,2.61
2022-12-27T08:15:01.241Z,2.76
2022-12-27T08:16:01.250Z,2.89
2022-12-27T08:17:01.340Z,3.00
2022-12-27T08:18:01.265Z,3.08
2022-12-27T08:19:08.066Z,3.16
2022-12-27T08:20:01.254Z,3.23
2022-12-27T08:21:01.238Z,3.31
2022-12-27T08:22:01.269Z,3.40
2022-12-27T08:23:01.263Z,3.48
2022-12-27T08:24:01.309Z,3.54
2022-12-27T08:25:01.276Z,3.59
2022-12-27T08:26:01.569Z,3.66
2022-12-27T08:27:01.291Z,3.71
2022-12-27T08:28:01.262Z,3.78
2022-12-27T08:29:01.275Z,3.86
2022-12-27T08:30:01.261Z,3.93
2022-12-27T08:31:01.397Z,3.98
2022-12-27T08:32:01.301Z,4.03
2022-12-27T08:33:01.278Z,4.06
2022-12-27T08:34:01.263Z,4.10
2022-12-27T08:35:24.544Z,4.12
2022-12-27T08:36:04.711Z,4.13
2022-12-27T08:37:01.311Z,4.15
2022-12-27T08:38:01.261Z,4.18
2022-12-27T08:39:01.313Z,4.22
2022-12-27T08:40:03.145Z,4.23
2022-12-27T08:41:01.256Z,4.25
2022-12-27T08:42:01.262Z,4.28
2022-12-27T08:43:01.295Z,4.28
2022-12-27T08:44:01.316Z,4.28
2022-12-27T08:45:01.287Z,4.29
2022-12-27T08:46:01.324Z,4.31
2022-12-27T08:47:01.275Z,4.31
2022-12-27T08:48:01.326Z,4.31
2022-12-27T08:49:01.288Z,4.30
2022-12-27T08:50:01.307Z,4.31
2022-12-27T08:51:01.284Z,4.32
2022-12-27T08:52:01.271Z,4.31
2022-12-27T08:53:01.282Z,4.32
2022-12-27T08:54:01.298Z,4.33
2022-12-27T08:55:01.267Z,4.32
2022-12-27T08:56:01.272Z,4.34
2022-12-27T08:57:01.296Z,4.32
2022-12-27T08:58:01.325Z,4.33
2022-12-27T08:59:01.287Z,4.32
2022-12-27T09:00:01.330Z,4.33
2022-12-27T09:01:01.330Z,4.35
2022-12-27T09:02:01.428Z,4.37
2022-12-27T09:03:01.371Z,4.39
2022-12-27T09:04:01.308Z,4.39
2022-12-27T09:05:01.318Z,4.41
2022-12-27T09:06:01.280Z,4.42
2022-12-27T09:07:01.290Z,4.42
2022-12-27T09:08:01.310Z,4.44
2022-12-27T09:09:01.336Z,4.46
2022-12-27T09:10:01.280Z,4.49
2022-12-27T09:11:01.286Z,4.53
2022-12-27T09:12:04.039Z,4.53
2022-12-27T09:13:01.303Z,4.55
2022-12-27T09:14:01.304Z,4.57
2022-12-27T09:15:01.315Z,4.57
2022-12-27T09:16:01.366Z,4.57
2022-12-27T09:17:01.291Z,4.55
2022-12-27T09:18:01.319Z,4.56
2022-12-27T09:19:01.360Z,4.55
2022-12-27T09:20:01.285Z,4.55
2022-12-27T09:21:01.308Z,4.53
2022-12-27T09:22:01.336Z,4.52
2022-12-27T09:23:01.327Z,4.50
2022-12-27T09:24:01.394Z,4.53
2022-12-27T09:25:01.356Z,4.58
2022-12-27T09:26:01.363Z,4.61
2022-12-27T09:27:01.324Z,4.64
2022-12-27T09:28:01.348Z,4.65
2022-12-27T09:29:01.323Z,4.68
2022-12-27T09:30:01.344Z,4.70
2022-12-27T09:31:01.375Z,4.74
2022-12-27T09:32:01.305Z,4.77
2022-12-27T09:33:01.329Z,4.78
2022-12-27T09:34:01.336Z,4.80
2022-12-27T09:35:01.333Z,4.82
2022-12-27T09:36:01.354Z,4.83
2022-12-27T09:37:01.332Z,4.84
2022-12-27T09:38:01.315Z,4.83
2022-12-27T09:39:01.323Z,4.85
2022-12-27T09:40:01.353Z,4.87
2022-12-27T09:41:01.349Z,4.89
2022-12-27T09:43:15.336Z,4.94
2022-12-27T09:44:01.345Z,4.94
2022-12-27T09:45:01.345Z,4.99
2022-12-27T09:46:01.392Z,5.00
2022-12-27T09:47:01.366Z,5.00
2022-12-27T09:48:01.383Z,5.00
2022-12-27T09:49:01.356Z,5.01
2022-12-27T09:50:01.350Z,5.00
2022-12-27T09:51:01.384Z,4.99
2022-12-27T09:52:01.381Z,5.00
2022-12-27T09:53:01.384Z,5.01
2022-12-27T09:54:01.354Z,5.02
2022-12-27T09:55:05.082Z,5.02
2022-12-27T09:56:01.361Z,5.02
2022-12-27T09:57:19.607Z,5.04
2022-12-27T09:58:01.383Z,5.04
2022-12-27T09:59:01.380Z,5.05
2022-12-27T10:00:01.394Z,5.06
2022-12-27T10:01:01.369Z,5.08
2022-12-27T10:02:01.473Z,5.11
2022-12-27T10:03:01.407Z,5.12
2022-12-27T10:04:01.375Z,5.14
2022-12-27T10:05:19.603Z,5.15
2022-12-27T10:06:01.465Z,5.20
2022-12-27T10:07:01.360Z,5.21
2022-12-27T10:08:01.341Z,5.22
2022-12-27T10:09:01.348Z,5.23
2022-12-27T10:10:01.361Z,5.25
2022-12-27T10:11:01.404Z,5.28
2022-12-27T10:12:01.417Z,5.30
2022-12-27T10:13:01.371Z,5.33
2022-12-27T10:14:01.363Z,5.32
2022-12-27T10:15:01.346Z,5.31
2022-12-27T10:16:01.396Z,5.34
2022-12-27T10:17:01.422Z,5.35
2022-12-27T10:18:01.379Z,5.36
2022-12-27T10:19:01.352Z,5.38
2022-12-27T10:20:01.408Z,5.41
2022-12-27T10:21:01.375Z,5.44
2022-12-27T10:22:01.369Z,5.47
2022-12-27T10:23:06.023Z,5.50
2022-12-27T10:24:01.392Z,5.55
2022-12-27T10:25:01.406Z,5.58
2022-12-27T10:26:01.425Z,5.63
2022-12-27T10:27:01.381Z,5.64
2022-12-27T10:28:01.417Z,5.68
2022-12-27T10:29:01.406Z,5.72
2022-12-27T10:30:01.418Z,5.78
2022-12-27T10:31:01.438Z,5.80
2022-12-27T10:32:01.391Z,5.83
2022-12-27T10:33:01.371Z,5.85
2022-12-27T10:34:03.994Z,5.85
2022-12-27T10:35:01.408Z,5.82
2022-12-27T10:36:01.403Z,5.81
2022-12-27T10:37:01.361Z,5.77
2022-12-27T10:38:01.383Z,5.76
2022-12-27T10:39:01.429Z,5.75
2022-12-27T10:40:01.380Z,5.73
2022-12-27T10:41:01.397Z,5.70
2022-12-27T10:42:01.452Z,5.70
2022-12-27T10:43:01.389Z,5.66
2022-12-27T10:44:01.366Z,5.63
2022-12-27T10:45:01.387Z,5.60
2022-12-27T10:46:01.373Z,5.56
2022-12-27T10:47:01.444Z,5.52
2022-12-27T10:48:01.423Z,5.51
2022-12-27T10:49:21.346Z,5.50
2022-12-27T10:50:01.444Z,5.50
2022-12-27T10:51:01.484Z,5.50
2022-12-27T10:52:01.385Z,5.48
2022-12-27T10:53:01.399Z,5.47
2022-12-27T10:54:01.412Z,5.47
2022-12-27T10:55:01.401Z,5.47
2022-12-27T10:56:01.419Z,5.47
2022-12-27T10:57:01.386Z,5.47
2022-12-27T10:58:01.414Z,5.49
2022-12-27T10:59:01.412Z,5.51
2022-12-27T11:00:01.381Z,5.49
2022-12-27T11:01:01.399Z,5.52
2022-12-27T11:02:01.486Z,5.53
2022-12-27T11:03:01.450Z,5.53
2022-12-27T11:04:02.585Z,5.58
2022-12-27T11:05:01.425Z,5.61
2022-12-27T11:06:01.405Z,5.66
2022-12-27T11:07:01.425Z,5.69
2022-12-27T11:08:01.404Z,5.74
2022-12-27T11:09:01.450Z,5.78
2022-12-27T11:10:01.425Z,5.77
2022-12-27T11:11:01.442Z,5.78
2022-12-27T11:12:01.406Z,5.79
2022-12-27T11:13:01.434Z,5.81
2022-12-27T11:14:01.428Z,5.82
2022-12-27T11:15:01.457Z,5.83
2022-12-27T11:16:01.445Z,5.84
2022-12-27T11:17:01.424Z,5.86
2022-12-27T11:18:01.403Z,5.90
2022-12-27T11:19:01.467Z,5.93
2022-12-27T11:20:01.470Z,6.00
2022-12-27T11:21:01.443Z,6.08
2022-12-27T11:22:01.472Z,6.16
2022-12-27T11:23:01.452Z,6.26
2022-12-27T11:24:01.430Z,6.36
2022-12-27T11:25:01.444Z,6.43
2022-12-27T11:26:01.492Z,6.52
2022-12-27T11:27:01.445Z,6.57
2022-12-27T11:28:01.461Z,6.62
2022-12-27T11:29:01.541Z,6.62
2022-12-27T11:30:01.422Z,6.63
2022-12-27T11:31:01.520Z,6.59
2022-12-27T11:32:01.417Z,6.56
2022-12-27T11:33:01.482Z,6.57
2022-12-27T11:34:01.473Z,6.58
2022-12-27T11:35:01.431Z,6.62
2022-12-27T11:36:01.536Z,6.65
2022-12-27T11:37:01.437Z,6.71
2022-12-27T11:38:01.422Z,6.72
2022-12-27T11:39:01.448Z,6.67
2022-12-27T11:40:01.432Z,6.65
2022-12-27T11:41:01.427Z,6.54
2022-12-27T11:42:01.484Z,6.46
2022-12-27T11:43:01.471Z,6.40
2022-12-27T11:44:01.473Z,6.36
2022-12-27T11:45:01.480Z,6.33
2022-12-27T11:46:01.467Z,6.33
2022-12-27T11:47:01.577Z,6.33
2022-12-27T11:48:01.466Z,6.36
2022-12-27T11:49:01.460Z,6.39
2022-12-27T11:50:01.450Z,6.41
2022-12-27T11:51:01.439Z,6.39
2022-12-27T11:52:01.440Z,6.37
2022-12-27T11:53:01.440Z,6.35
2022-12-27T11:54:01.512Z,6.37
2022-12-27T11:55:01.541Z,6.43
2022-12-27T11:56:01.453Z,6.49
2022-12-27T11:57:01.490Z,6.60
2022-12-27T11:58:01.452Z,6.71
2022-12-27T11:59:01.502Z,6.77
2022-12-27T12:00:01.486Z,6.78
2022-12-27T12:01:05.242Z,6.79
2022-12-27T12:02:07.362Z,6.81
2022-12-27T12:03:01.647Z,6.78
2022-12-27T12:04:01.459Z,6.77
2022-12-27T12:05:01.496Z,6.73
2022-12-27T12:06:01.454Z,6.71
2022-12-27T12:07:01.449Z,6.68
2022-12-27T12:08:01.465Z,6.69
2022-12-27T12:09:01.460Z,6.72
2022-12-27T12:10:01.572Z,6.76
2022-12-27T12:11:01.469Z,6.78
2022-12-27T12:12:01.539Z,6.80
2022-12-27T12:13:01.506Z,6.79
2022-12-27T12:14:01.542Z,6.78
2022-12-27T12:15:01.550Z,6.78
2022-12-27T12:16:01.480Z,6.77
2022-12-27T12:17:01.514Z,6.78
2022-12-27T12:18:01.502Z,6.83
2022-12-27T12:19:01.489Z,6.85
2022-12-27T12:20:01.493Z,6.87
2022-12-27T12:21:01.466Z,6.89
2022-12-27T12:22:01.481Z,6.94
2022-12-27T12:23:01.485Z,7.00
2022-12-27T12:24:01.488Z,7.06
2022-12-27T12:25:01.479Z,7.11
2022-12-27T12:26:01.484Z,7.13
2022-12-27T12:27:01.519Z,7.13
2022-12-27T12:28:01.512Z,7.15
2022-12-27T12:29:01.530Z,7.18
2022-12-27T12:30:01.489Z,7.19
2022-12-27T12:31:01.533Z,7.22
2022-12-27T12:32:01.666Z,7.19
2022-12-27T12:33:01.482Z,7.13
2022-12-27T12:34:01.554Z,7.10
2022-12-27T12:35:01.530Z,7.08
2022-12-27T12:36:01.507Z,7.07
2022-12-27T12:37:01.506Z,7.07
2022-12-27T12:38:01.512Z,7.05
2022-12-27T12:39:01.495Z,7.02
2022-12-27T12:40:04.244Z,7.01
2022-12-27T12:41:01.551Z,7.04
2022-12-27T12:42:01.561Z,7.05
2022-12-27T12:43:01.559Z,7.05
2022-12-27T12:44:01.607Z,7.03
2022-12-27T12:45:01.681Z,7.04
2022-12-27T12:46:01.737Z,7.08
2022-12-27T12:47:01.737Z,7.09
2022-12-27T12:48:01.728Z,7.13
2022-12-27T12:49:01.716Z,7.14
2022-12-27T12:50:01.771Z,7.15
2022-12-27T12:51:01.703Z,7.14
2022-12-27T12:52:01.735Z,7.14
2022-12-27T12:53:01.812Z,7.17
2022-12-27T12:54:01.776Z,7.24
2022-12-27T12:55:01.784Z,7.34
2022-12-27T12:56:01.823Z,7.40
2022-12-27T12:57:01.871Z,7.44
2022-12-27T12:58:01.848Z,7.46
2022-12-27T12:59:01.880Z,7.48
2022-12-27T13:00:01.884Z,7.48
2022-12-27T13:01:01.944Z,7.53
2022-12-27T13:02:02.100Z,7.60
2022-12-27T13:03:01.974Z,7.65
2022-12-27T13:04:01.935Z,7.64
2022-12-27T13:05:01.907Z,7.64
2022-12-27T13:06:01.921Z,7.67
2022-12-27T13:07:01.948Z,7.73
2022-12-27T13:08:01.904Z,7.85
2022-12-27T13:09:01.977Z,7.90
2022-12-27T13:10:01.988Z,7.90
2022-12-27T13:11:02.061Z,7.94
2022-12-27T13:12:01.996Z,8.05
2022-12-27T13:13:02.020Z,8.18
2022-12-27T13:14:02.058Z,8.35
2022-12-27T13:15:02.046Z,8.47
2022-12-27T13:16:02.087Z,8.49
2022-12-27T13:17:02.083Z,8.53
2022-12-27T13:18:02.084Z,8.49
2022-12-27T13:19:02.065Z,8.38
2022-12-27T13:20:02.029Z,8.38